createdAt,value
2023-03-10T00:00:06.041Z,22.43
2023-03-10T00:05:10.545Z,24.37
2023-03-10T00:10:16.833Z,22.03
2023-03-10T00:15:19.192Z,20.90
2023-03-10T00:20:23.071Z,21.33
2023-03-10T00:25:25.330Z,24.10
2023-03-10T00:30:30.677Z,22.87
2023-03-10T00:35:36.665Z,23.47
2023-03-10T00:40:47.595Z,23.63
2023-03-10T00:45:49.988Z,23.00
2023-03-10T00:50:52.417Z,23.50
2023-03-10T00:56:04.140Z,23.30
2023-03-10T01:01:14.663Z,22.93
2023-03-10T01:06:17.194Z,23.83
2023-03-10T01:11:22.828Z,23.13
2023-03-10T01:16:26.121Z,23.67
2023-03-10T01:21:32.603Z,23.13
2023-03-10T01:26:35.373Z,25.93
2023-03-10T01:31:37.896Z,29.73
2023-03-10T01:36:41.986Z,24.90
2023-03-10T01:41:44.261Z,24.57
2023-03-10T01:46:54.722Z,24.93
2023-03-10T01:52:08.510Z,23.37
2023-03-10T01:57:13.737Z,23.87
2023-03-10T02:02:16.652Z,22.83
2023-03-10T02:07:22.409Z,25.03
2023-03-10T02:12:24.800Z,25.73
2023-03-10T02:17:28.829Z,26.43
2023-03-10T02:22:32.726Z,24.00
2023-03-10T02:27:37.181Z,23.20
2023-03-10T02:32:47.561Z,22.67
2023-03-10T02:37:53.301Z,20.80
2023-03-10T02:42:56.266Z,21.70
2023-03-10T02:47:58.777Z,19.70
2023-03-10T02:53:11.837Z,20.33
2023-03-10T02:58:15.883Z,19.90
2023-03-10T03:03:20.403Z,19.60
2023-03-10T03:08:23.305Z,18.73
2023-03-10T03:13:25.984Z,19.03
2023-03-10T03:18:28.975Z,18.80
2023-03-10T03:23:31.442Z,19.13
2023-03-10T03:28:33.916Z,18.77
2023-03-10T03:33:36.247Z,18.63
2023-03-10T03:38:38.802Z,20.17
2023-03-10T03:43:41.285Z,19.50
2023-03-10T03:48:43.651Z,19.13
2023-03-10T03:53:46.094Z,21.53
2023-03-10T03:58:48.418Z,21.13
2023-03-10T04:03:51.840Z,21.70
2023-03-10T04:08:54.281Z,20.83
2023-03-10T04:13:59.068Z,21.63
2023-03-10T04:19:02.426Z,22.60
2023-03-10T04:24:05.894Z,23.37
2023-03-10T04:29:09.882Z,24.10
2023-03-10T04:34:14.772Z,22.47
2023-03-10T04:39:17.119Z,23.47
2023-03-10T04:44:30.428Z,22.33
2023-03-10T04:49:34.680Z,22.97
2023-03-10T04:54:38.277Z,22.90
2023-03-10T04:59:40.612Z,22.33
2023-03-10T05:04:43.207Z,25.07
2023-03-10T05:09:46.207Z,30.00
2023-03-10T05:14:48.622Z,30.63
2023-03-10T05:19:50.957Z,25.83
2023-03-10T05:24:53.763Z,29.23
2023-03-10T05:29:56.154Z,35.80
2023-03-10T05:35:01.791Z,30.00
2023-03-10T05:40:07.591Z,37.83
2023-03-10T05:45:11.102Z,35.43
2023-03-10T05:50:14.746Z,29.40
2023-03-10T05:55:19.204Z,30.03
2023-03-10T06:00:22.714Z,31.57
2023-03-10T06:05:33.644Z,32.20
2023-03-10T06:10:36.016Z,37.83
2023-03-10T06:15:38.259Z,30.50
2023-03-10T06:20:40.537Z,36.37
2023-03-10T06:25:43.124Z,32.17
2023-03-10T06:30:45.368Z,34.17
2023-03-10T06:35:47.633Z,32.53
2023-03-10T06:40:50.422Z,38.47
2023-03-10T06:45:52.685Z,31.13
2023-03-10T06:50:55.241Z,29.53
2023-03-10T06:56:02.728Z,33.00
2023-03-10T07:01:06.313Z,51.20
2023-03-10T07:06:08.601Z,33.73
2023-03-10T07:11:11.071Z,49.33
2023-03-10T07:16:13.432Z,84.67
2023-03-10T07:21:20.494Z,48.17
2023-03-10T07:26:22.786Z,62.77
2023-03-10T07:31:25.585Z,76.33
2023-03-10T07:36:29.162Z,59.43
2023-03-10T07:41:31.435Z,69.70
2023-03-10T07:46:33.749Z,70.23
2023-03-10T07:51:36.054Z,63.53
2023-03-10T07:56:38.286Z,143.00
2023-03-10T08:01:40.565Z,48.90
2023-03-10T08:06:42.810Z,52.03
2023-03-10T08:11:45.019Z,69.80
2023-03-10T08:16:47.234Z,44.07
2023-03-10T08:21:49.689Z,36.10
2023-03-10T08:26:54.419Z,39.27
2023-03-10T08:31:57.870Z,30.67
2023-03-10T08:37:00.949Z,25.93
2023-03-10T08:42:03.400Z,24.97
2023-03-10T08:47:05.894Z,16.50
2023-03-10T08:52:09.238Z,15.13
2023-03-10T08:57:11.498Z,16.33
2023-03-10T09:02:15.282Z,7.67
2023-03-10T09:07:17.682Z,15.87
2023-03-10T09:12:19.941Z,125.37
2023-03-10T09:17:22.215Z,8.73
2023-03-10T09:22:24.521Z,15.20
2023-03-10T09:27:26.764Z,8.07
2023-03-10T09:32:29.047Z,11.07
2023-03-10T09:37:32.351Z,12.57
2023-03-10T09:43:09.639Z,6.37
2023-03-10T09:48:26.501Z,27.93
2023-03-10T09:53:55.122Z,30.43
2023-03-10T09:59:16.957Z,12.40
2023-03-10T10:04:35.345Z,10.03
2023-03-10T10:09:47.270Z,7.77
2023-03-10T10:14:57.929Z,20.07
2023-03-10T10:20:00.211Z,11.30
2023-03-10T10:25:08.752Z,16.17
2023-03-10T10:30:38.051Z,4.60
2023-03-10T10:35:59.085Z,10.20
2023-03-10T10:41:07.725Z,26.93
2023-03-10T10:46:12.266Z,4.33
2023-03-10T10:51:29.163Z,4.67
2023-03-10T10:56:31.933Z,10.70
2023-03-10T11:01:57.483Z,5.33
2023-03-10T11:07:32.348Z,4.93
2023-03-10T11:12:50.093Z,6.60
2023-03-10T11:18:03.106Z,2.13
2023-03-10T11:23:29.565Z,2.57
2023-03-10T11:28:42.796Z,3.00
2023-03-10T11:34:08.825Z,4.83
2023-03-10T11:39:37.881Z,1.80
2023-03-10T11:44:57.682Z,4.10
2023-03-10T11:50:17.942Z,5.67
2023-03-10T11:55:21.602Z,2.30
2023-03-10T12:00:34.544Z,1.57
2023-03-10T12:05:45.699Z,3.20
2023-03-10T12:10:49.881Z,3.47
2023-03-10T12:15:59.662Z,1.67
2023-03-10T12:21:23.433Z,5.10
2023-03-10T12:26:59.057Z,8.57
2023-03-10T12:32:01.596Z,5.10
2023-03-10T12:37:12.431Z,4.60
2023-03-10T12:42:35.220Z,5.37
2023-03-10T12:48:01.604Z,6.17
2023-03-10T12:53:32.761Z,3.57
2023-03-10T12:58:37.196Z,2.87
2023-03-10T13:03:47.310Z,5.57
2023-03-10T13:09:01.834Z,4.43
2023-03-10T13:14:12.719Z,3.77
2023-03-10T13:19:20.933Z,3.80
2023-03-10T13:24:36.287Z,3.53
2023-03-10T13:29:39.302Z,2.43
2023-03-10T13:34:41.577Z,3.43
2023-03-10T13:39:43.844Z,3.50
2023-03-10T13:44:47.611Z,4.30
2023-03-10T13:49:58.565Z,14.87
2023-03-10T13:55:15.629Z,3.90
2023-03-10T14:00:21.787Z,7.50
2023-03-10T14:05:42.327Z,3.87
2023-03-10T14:10:44.688Z,3.77
2023-03-10T14:15:54.672Z,9.70
2023-03-10T14:20:57.114Z,13.87
2023-03-10T14:25:59.651Z,38.20
2023-03-10T14:31:02.763Z,5.93
2023-03-10T14:36:10.770Z,5.00
2023-03-10T14:41:14.151Z,4.37
2023-03-10T14:46:16.912Z,11.57
2023-03-10T14:51:34.421Z,18.17
2023-03-10T14:56:38.307Z,6.73
2023-03-10T15:01:41.606Z,4.80
2023-03-10T15:06:46.281Z,2.20
2023-03-10T15:11:48.779Z,12.80
2023-03-10T15:16:51.276Z,21.37
2023-03-10T15:21:54.225Z,26.07
2023-03-10T15:26:56.647Z,33.23
2023-03-10T15:31:58.994Z,30.97
2023-03-10T15:37:01.424Z,31.47
2023-03-10T15:42:03.845Z,15.77
2023-03-10T15:47:06.365Z,26.97
2023-03-10T15:52:08.815Z,31.63
2023-03-10T15:57:11.286Z,45.27
2023-03-10T16:02:15.342Z,23.27
2023-03-10T16:07:17.738Z,22.10
2023-03-10T16:12:22.391Z,40.80
2023-03-10T16:17:24.853Z,39.43
2023-03-10T16:22:27.169Z,29.00
2023-03-10T16:27:29.519Z,19.37
2023-03-10T16:32:32.095Z,37.67
2023-03-10T16:37:34.438Z,17.33
2023-03-10T16:42:36.872Z,26.40
2023-03-10T16:47:39.286Z,16.13
2023-03-10T16:52:42.705Z,12.07
2023-03-10T16:57:45.965Z,12.23
2023-03-10T17:02:48.717Z,11.90
2023-03-10T17:07:55.907Z,20.17
2023-03-10T17:12:58.517Z,19.17
2023-03-10T17:18:00.890Z,18.70
2023-03-10T17:23:03.253Z,15.40
2023-03-10T17:28:05.806Z,16.97
2023-03-10T17:33:08.185Z,15.53
2023-03-10T17:38:10.511Z,15.13
2023-03-10T17:43:29.680Z,13.60
2023-03-10T17:48:35.938Z,37.20
2023-03-10T17:53:38.443Z,185.77
2023-03-10T17:58:41.208Z,75.63
2023-03-10T18:03:45.396Z,36.60
2023-03-10T18:08:49.847Z,71.13
2023-03-10T18:13:52.245Z,65.10
2023-03-10T18:18:56.019Z,32.87
2023-03-10T18:23:58.600Z,28.77
2023-03-10T18:29:01.065Z,22.87
2023-03-10T18:34:04.086Z,25.43
2023-03-10T18:39:07.769Z,17.40
2023-03-10T18:44:10.108Z,20.17
2023-03-10T18:49:12.476Z,20.70
2023-03-10T18:54:14.833Z,22.33
2023-03-10T18:59:18.981Z,22.57
2023-03-10T19:04:21.237Z,22.07
2023-03-10T19:09:24.408Z,23.33
2023-03-10T19:14:26.625Z,23.30
2023-03-10T19:19:28.858Z,24.23
2023-03-10T19:24:31.170Z,38.73
2023-03-10T19:29:33.422Z,50.17
2023-03-10T19:34:35.906Z,45.07
2023-03-10T19:39:38.233Z,39.50
2023-03-10T19:44:40.516Z,39.93
2023-03-10T19:49:43.284Z,43.53
2023-03-10T19:54:45.499Z,38.43
2023-03-10T19:59:47.719Z,38.57
2023-03-10T20:04:50.550Z,38.20
2023-03-10T20:09:52.762Z,62.37
2023-03-10T20:14:58.624Z,58.47
2023-03-10T20:20:01.024Z,50.77
2023-03-10T20:25:04.339Z,42.60
2023-03-10T20:30:16.484Z,32.87
2023-03-10T20:35:19.229Z,32.20
2023-03-10T20:40:24.124Z,32.13
2023-03-10T20:45:26.520Z,36.73
2023-03-10T20:50:28.773Z,41.97
2023-03-10T20:55:32.045Z,43.13
2023-03-10T21:00:34.277Z,39.10
2023-03-10T21:05:36.518Z,38.10
2023-03-10T21:10:38.863Z,49.80
2023-03-10T21:15:41.335Z,51.43
2023-03-10T21:20:43.658Z,51.77
2023-03-10T21:25:45.982Z,125.00
2023-03-10T21:30:48.257Z,101.53
2023-03-10T21:35:50.537Z,102.77
2023-03-10T21:40:53.180Z,97.63
2023-03-10T21:45:55.529Z,98.70
2023-03-10T21:50:57.802Z,89.07
2023-03-10T21:56:00.772Z,73.47
2023-03-10T22:01:07.098Z,140.83
2023-03-10T22:06:09.917Z,78.97
2023-03-10T22:11:12.791Z,47.60
2023-03-10T22:16:17.199Z,34.20
2023-03-10T22:21:20.469Z,30.87
2023-03-10T22:26:22.700Z,28.80
2023-03-10T22:31:24.973Z,27.50
2023-03-10T22:36:27.285Z,28.60
2023-03-10T22:41:29.865Z,24.83
2023-03-10T22:46:32.467Z,20.03
2023-03-10T22:51:34.845Z,17.23
2023-03-10T22:56:37.131Z,19.13
2023-03-10T23:01:39.612Z,18.17
2023-03-10T23:06:41.850Z,16.70
2023-03-10T23:11:45.326Z,15.70
2023-03-10T23:16:47.575Z,13.77
2023-03-10T23:21:49.901Z,13.17
2023-03-10T23:26:52.123Z,13.40
2023-03-10T23:31:54.688Z,11.07
2023-03-10T23:36:58.246Z,12.93
2023-03-10T23:42:00.606Z,14.27
2023-03-10T23:47:02.875Z,14.53
2023-03-10T23:52:05.110Z,19.80
2023-03-10T23:57:07.772Z,15.30
